createdAt,value
2017-04-06T00:00:10.023Z,64.37
2017-04-06T00:01:19.581Z,64.56
2017-04-06T00:02:29.723Z,64.37
2017-04-06T00:03:39.617Z,64.84
2017-04-06T00:04:49.848Z,65.13
2017-04-06T00:05:59.731Z,65.32
2017-04-06T00:07:09.342Z,65.6
2017-04-06T00:08:18.997Z,65.03
2017-04-06T00:09:29.502Z,65.6
2017-04-06T00:10:39.638Z,64.84
2017-04-06T00:11:49.226Z,65.32
2017-04-06T00:12:58.792Z,65.51
2017-04-06T00:14:08.669Z,65.89
2017-04-06T00:15:18.548Z,65.6
2017-04-06T00:16:28.459Z,65.6
2017-04-06T00:17:38.059Z,65.99
2017-04-06T00:18:47.703Z,65.51
2017-04-06T00:19:57.609Z,65.6
2017-04-06T00:21:07.215Z,66.08
2017-04-06T00:22:17.368Z,65.89
2017-04-06T00:23:26.987Z,66.55
2017-04-06T00:24:36.806Z,66.46
2017-04-06T00:25:46.820Z,67.13
2017-04-06T00:26:56.517Z,67.69
2017-04-06T00:28:06.693Z,67.69
2017-04-06T00:29:16.572Z,67.88
2017-04-06T00:30:26.312Z,68.36
2017-04-06T00:31:36.220Z,68.55
2017-04-06T00:32:46.105Z,68.93
2017-04-06T00:33:56.262Z,69.6
2017-04-06T00:35:06.172Z,69.6
2017-04-06T00:36:15.772Z,70.36
2017-04-06T00:37:24.743Z,70.36
2017-04-06T00:38:34.660Z,70.36
2017-04-06T00:39:44.477Z,70.64
2017-04-06T00:40:53.726Z,70.45
2017-04-06T00:42:03.342Z,70.83
2017-04-06T00:43:13.427Z,70.64
2017-04-06T00:44:23.363Z,70.36
2017-04-06T00:45:33.238Z,70.74
2017-04-06T00:46:43.181Z,70.36
2017-04-06T00:47:53.113Z,71.02
2017-04-06T00:49:03.001Z,70.74
2017-04-06T00:50:12.877Z,70.36
2017-04-06T00:51:22.782Z,70.45
2017-04-06T00:52:32.347Z,70.45
2017-04-06T00:53:42.245Z,70.93
2017-04-06T00:54:52.245Z,70.93
2017-04-06T00:56:02.186Z,71.41
2017-04-06T00:57:12.308Z,71.59
2017-04-06T00:58:22.214Z,71.12
2017-04-06T00:59:31.506Z,71.22
2017-04-06T01:00:41.398Z,71.12
2017-04-06T01:01:51.288Z,71.69
2017-04-06T01:03:01.524Z,71.69
2017-04-06T01:04:11.133Z,71.22
2017-04-06T01:05:21.054Z,71.02
2017-04-06T01:06:30.932Z,70.93
2017-04-06T01:07:39.890Z,71.59
2017-04-06T01:08:50.035Z,71.27
2017-04-06T01:09:59.641Z,71.12
2017-04-06T01:11:09.534Z,71.46
2017-04-06T01:12:18.790Z,70.89
2017-04-06T01:13:28.069Z,71.5
2017-04-06T01:14:38.314Z,71.18
2017-04-06T01:15:48.249Z,71.18
2017-04-06T01:16:58.131Z,70.89
2017-04-06T01:18:07.731Z,70.89
2017-04-06T01:19:17.720Z,71.46
2017-04-06T01:20:27.589Z,71.46
2017-04-06T01:21:37.233Z,71.46
2017-04-06T01:22:46.801Z,71.27
2017-04-06T01:23:56.779Z,71.75
2017-04-06T01:25:06.340Z,71.37
2017-04-06T01:26:16.692Z,71.27
2017-04-06T01:27:26.271Z,71.08
2017-04-06T01:28:36.154Z,71.46
2017-04-06T01:29:46.257Z,70.79
2017-04-06T01:30:55.967Z,71.37
2017-04-06T01:32:05.789Z,71.18
2017-04-06T01:33:15.668Z,70.99
2017-04-06T01:34:25.539Z,71.46
2017-04-06T01:35:35.526Z,71.56
2017-04-06T01:36:45.416Z,71.75
2017-04-06T01:37:55.235Z,71.66
2017-04-06T01:39:05.120Z,71.66
2017-04-06T01:40:14.414Z,71.56
2017-04-06T01:41:23.986Z,71.75
2017-04-06T01:42:33.871Z,71.66
2017-04-06T01:43:43.681Z,71.56
2017-04-06T01:44:53.567Z,71.56
2017-04-06T01:46:03.170Z,71.84
2017-04-06T01:47:13.066Z,71.66
2017-04-06T01:48:22.951Z,72.03
2017-04-06T01:49:32.811Z,71.94
2017-04-06T01:50:42.707Z,72.13
2017-04-06T01:51:52.595Z,72.79
2017-04-06T01:53:02.202Z,72.6
2017-04-06T01:54:11.623Z,72.79
2017-04-06T01:55:21.838Z,72.89
2017-04-06T01:56:31.399Z,72.89
2017-04-06T01:57:40.991Z,72.6
2017-04-06T01:58:50.732Z,72.99
2017-04-06T01:59:59.983Z,72.79
2017-04-06T02:01:09.868Z,72.7
2017-04-06T02:02:19.441Z,72.99
2017-04-06T02:03:29.321Z,72.7
2017-04-06T02:04:38.612Z,72.51
2017-04-06T02:05:48.492Z,72.6
2017-04-06T02:06:58.676Z,72.6
2017-04-06T02:08:07.982Z,72.13
2017-04-06T02:09:17.867Z,72.32
2017-04-06T02:10:27.738Z,72.03
2017-04-06T02:11:37.367Z,72.03
2017-04-06T02:12:47.582Z,71.94
2017-04-06T02:13:57.477Z,72.22
2017-04-06T02:15:07.079Z,72.22
2017-04-06T02:16:16.653Z,72.03
2017-04-06T02:17:26.537Z,72.13
2017-04-06T02:18:36.924Z,71.75
2017-04-06T02:19:46.530Z,71.66
2017-04-06T02:20:56.472Z,71.56
2017-04-06T02:22:06.094Z,71.56
2017-04-06T02:23:16.025Z,71.56
2017-04-06T02:24:26.157Z,71.75
2017-04-06T02:25:36.112Z,71.84
2017-04-06T02:26:45.996Z,71.75
2017-04-06T02:27:55.911Z,71.66
2017-04-06T02:29:05.163Z,71.46
2017-04-06T02:30:15.341Z,71.66
2017-04-06T02:31:25.224Z,72.03
2017-04-06T02:32:34.858Z,72.03
2017-04-06T02:33:44.782Z,72.32
2017-04-06T02:34:54.656Z,71.94
2017-04-06T02:36:04.583Z,72.03
2017-04-06T02:37:14.146Z,72.22
2017-04-06T02:38:24.158Z,72.03
2017-04-06T02:39:33.732Z,71.94
2017-04-06T02:40:43.321Z,72.22
2017-04-06T02:41:53.570Z,72.22
2017-04-06T02:43:03.495Z,72.03
2017-04-06T02:44:13.410Z,72.66
2017-04-06T02:45:23.330Z,72.7
2017-04-06T02:46:33.292Z,72.75
2017-04-06T02:47:43.126Z,72.85
2017-04-06T02:48:53.089Z,72.85
2017-04-06T02:50:02.684Z,73.04
2017-04-06T02:51:12.599Z,72.95
2017-04-06T02:52:22.580Z,73.33
2017-04-06T02:53:32.734Z,72.95
2017-04-06T02:54:42.072Z,73.04
2017-04-06T02:55:51.686Z,72.95
2017-04-06T02:57:01.289Z,72.75
2017-04-06T02:58:10.861Z,73.04
2017-04-06T02:59:20.440Z,72.75
2017-04-06T03:00:30.330Z,72.66
2017-04-06T03:01:40.505Z,72.75
2017-04-06T03:02:50.434Z,72.47
2017-04-06T03:04:00.372Z,72.95
2017-04-06T03:05:10.574Z,72.75
2017-04-06T03:06:20.474Z,72.56
2017-04-06T03:07:30.378Z,72.85
2017-04-06T03:08:40.342Z,72.38
2017-04-06T03:09:50.321Z,72.85
2017-04-06T03:11:00.533Z,72.38
2017-04-06T03:12:10.532Z,72.56
2017-04-06T03:13:20.461Z,72.56
2017-04-06T03:14:30.041Z,72.56
2017-04-06T03:15:40.222Z,72.38
2017-04-06T03:16:50.401Z,72.66
2017-04-06T03:18:00.328Z,72.38
2017-04-06T03:19:10.293Z,72.85
2017-04-06T03:20:20.319Z,72.75
2017-04-06T03:21:30.226Z,72.75
2017-04-06T03:22:40.380Z,72.75
2017-04-06T03:23:50.319Z,72.56
2017-04-06T03:25:00.380Z,72.66
2017-04-06T03:26:10.013Z,72.95
2017-04-06T03:27:19.945Z,72.66
2017-04-06T03:28:30.246Z,72.85
2017-04-06T03:29:39.836Z,72.85
2017-04-06T03:30:49.789Z,72.95
2017-04-06T03:31:59.411Z,73.33
2017-04-06T03:33:09.320Z,73.23
2017-04-06T03:34:19.465Z,73.23
2017-04-06T03:35:28.725Z,73.42
2017-04-06T03:36:37.990Z,73.52
2017-04-06T03:37:47.897Z,73.52
2017-04-06T03:38:57.792Z,73.14
2017-04-06T03:40:07.973Z,73.52
2017-04-06T03:41:17.933Z,72.85
2017-04-06T03:42:27.873Z,72.95
2017-04-06T03:43:37.773Z,73.33
2017-04-06T03:44:47.408Z,73.61
2017-04-06T03:45:57.554Z,73.33
2017-04-06T03:47:07.622Z,73.52
2017-04-06T03:48:17.194Z,73.23
2017-04-06T03:49:27.180Z,73.52
2017-04-06T03:50:37.083Z,73.42
2017-04-06T03:51:47.243Z,73.52
2017-04-06T03:52:57.131Z,73.52
2017-04-06T03:54:07.137Z,73.52
2017-04-06T03:55:17.071Z,73.33
2017-04-06T03:56:26.699Z,73.61
2017-04-06T03:57:36.601Z,73.42
2017-04-06T03:58:46.391Z,73.52
2017-04-06T03:59:56.428Z,73.52
2017-04-06T04:01:06.378Z,73.71
2017-04-06T04:02:16.344Z,73.42
2017-04-06T04:03:26.557Z,73.14
2017-04-06T04:04:35.906Z,73.42
2017-04-06T04:05:45.477Z,73.33
2017-04-06T04:06:55.056Z,73.52
2017-04-06T04:08:04.648Z,73.8
2017-04-06T04:09:14.886Z,73.99
2017-04-06T04:10:24.787Z,73.71
2017-04-06T04:11:34.376Z,73.99
2017-04-06T04:12:44.287Z,73.99
2017-04-06T04:13:54.186Z,73.9
2017-04-06T04:15:04.648Z,74.56
2017-04-06T04:16:14.622Z,73.8
2017-04-06T04:17:24.523Z,73.71
2017-04-06T04:18:34.151Z,73.99
2017-04-06T04:19:43.728Z,74.18
2017-04-06T04:20:53.929Z,73.99
2017-04-06T04:22:03.878Z,74.27
2017-04-06T04:23:13.453Z,74.08
2017-04-06T04:24:23.027Z,74.27
2017-04-06T04:25:33.002Z,73.71
2017-04-06T04:26:43.251Z,74.27
2017-04-06T04:27:52.517Z,74.47
2017-04-06T04:29:02.130Z,74.47
2017-04-06T04:30:11.715Z,74.37
2017-04-06T04:31:21.427Z,74.37
2017-04-06T04:32:31.579Z,74.18
2017-04-06T04:33:41.470Z,74.75
2017-04-06T04:34:51.457Z,74.18
2017-04-06T04:36:01.084Z,74.47
2017-04-06T04:37:10.533Z,74.27
2017-04-06T04:38:52.190Z,74.18
2017-04-06T04:40:02.350Z,74.75
2017-04-06T04:41:12.307Z,74.18
2017-04-06T04:42:21.932Z,74.37
2017-04-06T04:43:32.111Z,74.66
2017-04-06T04:44:42.018Z,74.37
2017-04-06T04:45:51.927Z,74.37
2017-04-06T04:47:01.556Z,74.94
2017-04-06T04:48:11.194Z,74.27
2017-04-06T04:49:21.362Z,74.18
2017-04-06T04:50:31.394Z,74.37
2017-04-06T04:51:41.364Z,74.66
2017-04-06T04:52:51.286Z,74.47
2017-04-06T04:54:00.569Z,74.27
2017-04-06T04:55:10.720Z,74.18
2017-04-06T04:56:20.681Z,74.27
2017-04-06T04:57:30.584Z,74.75
2017-04-06T04:58:40.532Z,74.66
2017-04-06T04:59:50.144Z,74.94
2017-04-06T05:01:00.038Z,74.94
2017-04-06T05:02:09.720Z,74.66
2017-04-06T05:03:19.305Z,74.85
2017-04-06T05:04:29.207Z,74.56
2017-04-06T05:05:38.503Z,74.66
2017-04-06T05:06:48.751Z,74.85
2017-04-06T05:07:58.386Z,74.85
2017-04-06T05:09:08.336Z,74.56
2017-04-06T05:10:17.971Z,74.94
2017-04-06T05:11:28.001Z,74.66
2017-04-06T05:12:37.903Z,74.66
2017-04-06T05:13:47.785Z,74.08
2017-04-06T05:14:57.060Z,74.47
2017-04-06T05:16:07.087Z,74.47
2017-04-06T05:17:17.034Z,74.47
2017-04-06T05:18:27.192Z,74.47
2017-04-06T05:19:36.485Z,74.56
2017-04-06T05:20:46.375Z,74.47
2017-04-06T05:21:55.977Z,74.66
2017-04-06T05:23:05.621Z,74.37
2017-04-06T05:24:15.830Z,74.66
2017-04-06T05:25:25.725Z,74.37
2017-04-06T05:26:35.300Z,74.18
2017-04-06T05:27:45.265Z,74.37
2017-04-06T05:28:55.176Z,74.18
2017-04-06T05:30:05.359Z,74.18
2017-04-06T05:31:14.755Z,74.37
2017-04-06T05:32:24.367Z,74.18
2017-04-06T05:33:34.323Z,74.18
2017-04-06T05:34:43.972Z,74.27
2017-04-06T05:35:53.898Z,73.71
2017-04-06T05:37:03.838Z,73.99
2017-04-06T05:38:13.838Z,73.99
2017-04-06T05:39:23.745Z,74.27
2017-04-06T05:40:33.082Z,73.99
2017-04-06T05:41:43.347Z,74.22
2017-04-06T05:42:53.279Z,74.27
2017-04-06T05:44:03.181Z,74.18
2017-04-06T05:45:13.100Z,74.22
2017-04-06T05:46:23.005Z,73.74
2017-04-06T05:47:32.834Z,73.52
2017-04-06T05:48:42.416Z,73.9
2017-04-06T05:49:51.728Z,73.84
2017-04-06T05:51:01.330Z,73.93
2017-04-06T05:52:11.217Z,73.65
2017-04-06T05:53:21.424Z,73.65
2017-04-06T05:54:31.041Z,73.55
2017-04-06T05:55:40.944Z,73.55
2017-04-06T05:56:50.878Z,73.46
2017-04-06T05:58:00.986Z,73.36
2017-04-06T05:59:10.836Z,73.08
2017-04-06T06:00:20.777Z,73.18
2017-04-06T06:01:30.710Z,72.79
2017-04-06T06:02:40.646Z,72.6
2017-04-06T06:03:50.566Z,72.13
2017-04-06T06:05:00.836Z,72.51
2017-04-06T06:06:10.412Z,72.22
2017-04-06T06:07:20.314Z,71.94
2017-04-06T06:08:29.932Z,71.94
2017-04-06T06:09:39.840Z,72.03
2017-04-06T06:10:49.382Z,71.56
2017-04-06T06:11:59.392Z,71.75
2017-04-06T06:13:09.289Z,71.78
2017-04-06T06:14:19.230Z,71.56
2017-04-06T06:15:29.242Z,71.66
2017-04-06T06:16:39.386Z,71.66
2017-04-06T06:17:48.981Z,71.37
2017-04-06T06:18:59.060Z,71.37
2017-04-06T06:20:09.015Z,71.56
2017-04-06T06:21:18.945Z,71.5
2017-04-06T06:22:29.124Z,71.59
2017-04-06T06:23:38.736Z,70.64
2017-04-06T06:24:48.639Z,70.93
2017-04-06T06:25:58.553Z,70.83
2017-04-06T06:27:08.480Z,70.93
2017-04-06T06:28:18.636Z,70.83
2017-04-06T06:29:28.220Z,70.54
2017-04-06T06:30:37.843Z,70.54
2017-04-06T06:31:47.766Z,69.88
2017-04-06T06:32:57.399Z,69.41
2017-04-06T06:34:07.541Z,68.84
2017-04-06T06:35:17.154Z,69.31
2017-04-06T06:36:27.102Z,68.74
2017-04-06T06:37:36.669Z,68.74
2017-04-06T06:38:46.662Z,68.84
2017-04-06T06:39:56.801Z,68.4
2017-04-06T06:41:06.716Z,68.11
2017-04-06T06:42:16.309Z,67.82
2017-04-06T06:43:25.987Z,68.01
2017-04-06T06:44:35.911Z,68.11
2017-04-06T06:45:46.249Z,67.07
2017-04-06T06:46:56.229Z,67.63
2017-04-06T06:48:05.802Z,67.54
2017-04-06T06:49:15.137Z,67.63
2017-04-06T06:50:25.056Z,66.87
2017-04-06T06:51:35.297Z,66.3
2017-04-06T06:52:45.229Z,66.3
2017-04-06T06:53:54.804Z,65.54
2017-04-06T06:55:04.066Z,65.64
2017-04-06T06:56:13.640Z,65.64
2017-04-06T06:57:23.800Z,65.16
2017-04-06T06:58:33.397Z,65.06
2017-04-06T06:59:43.315Z,65.25
2017-04-06T07:00:52.574Z,65.45
2017-04-06T07:02:02.184Z,65.25
2017-04-06T07:03:12.084Z,64.97
2017-04-06T07:04:21.373Z,65.16
2017-04-06T07:05:30.636Z,64.78
2017-04-06T07:06:39.915Z,65.16
2017-04-06T07:07:49.858Z,64.97
2017-04-06T07:09:00.001Z,65.06
2017-04-06T07:10:09.906Z,65.25
2017-04-06T07:11:19.843Z,65.45
2017-04-06T07:12:29.673Z,65.25
2017-04-06T07:13:39.595Z,65.16
2017-04-06T07:14:49.185Z,65.06
2017-04-06T07:15:59.151Z,65.16
2017-04-06T07:17:09.173Z,64.72
2017-04-06T07:18:18.792Z,64.43
2017-04-06T07:19:28.690Z,64.43
2017-04-06T07:20:38.580Z,64.05
2017-04-06T07:21:48.564Z,62.53
2017-04-06T07:22:58.481Z,62.62
2017-04-06T07:24:08.418Z,61.99
2017-04-06T07:25:18.021Z,62.37
2017-04-06T07:26:27.892Z,61.51
2017-04-06T07:27:37.474Z,61.32
2017-04-06T07:28:47.483Z,61.32
2017-04-06T07:29:57.441Z,61.7
2017-04-06T07:31:07.444Z,61.61
2017-04-06T07:32:17.595Z,61.51
2017-04-06T07:33:27.496Z,60.46
2017-04-06T07:34:37.087Z,60.85
2017-04-06T07:35:46.702Z,60.46
2017-04-06T07:36:56.322Z,59.99
2017-04-06T07:38:06.341Z,59.54
2017-04-06T07:39:16.236Z,60.02
2017-04-06T07:40:26.189Z,59.45
2017-04-06T07:41:35.769Z,59.74
2017-04-06T07:42:45.355Z,59.06
2017-04-06T07:43:55.629Z,58.02
2017-04-06T07:45:05.571Z,57.26
2017-04-06T07:46:15.574Z,56.97
2017-04-06T07:47:25.546Z,56.97
2017-04-06T07:48:35.224Z,56.87
2017-04-06T07:49:45.685Z,57.07
2017-04-06T07:50:55.922Z,55.95
2017-04-06T07:52:05.497Z,55.66
2017-04-06T07:53:15.090Z,55.95
2017-04-06T07:54:24.847Z,56.04
2017-04-06T07:55:35.033Z,56.52
2017-04-06T07:56:44.298Z,55.47
2017-04-06T07:57:54.349Z,54.14
2017-04-06T07:59:04.883Z,53.95
2017-04-06T08:00:14.740Z,53.95
2017-04-06T08:01:24.895Z,53.12
2017-04-06T08:02:35.091Z,51.23
2017-04-06T08:03:45.687Z,48.9
2017-04-06T08:04:55.861Z,47.42
2017-04-06T08:06:06.364Z,46.58
2017-04-06T08:07:17.241Z,42.8
2017-04-06T08:08:27.793Z,40.9
2017-04-06T08:09:38.277Z,38.81
2017-04-06T08:10:48.771Z,39.03
2017-04-06T08:11:58.980Z,38.66
2017-04-06T08:13:09.396Z,37.41
2017-04-06T08:14:19.669Z,35.42
2017-04-06T08:15:30.195Z,33.21
2017-04-06T08:16:40.943Z,32.55
2017-04-06T08:17:51.116Z,32.65
2017-04-06T08:19:01.536Z,31.49
2017-04-06T08:20:12.097Z,30.36
2017-04-06T08:21:22.772Z,32.93
2017-04-06T08:22:32.634Z,32.93
2017-04-06T08:23:43.852Z,31.02
2017-04-06T08:24:54.427Z,31.02
2017-04-06T08:26:04.977Z,32.09
2017-04-06T08:27:15.225Z,31.03
2017-04-06T08:28:25.722Z,30.66
2017-04-06T08:29:37.080Z,30.39
2017-04-06T08:30:48.936Z,29.15
2017-04-06T08:31:59.159Z,29.25
2017-04-06T08:33:09.330Z,29.17
2017-04-06T08:34:19.505Z,28.51
2017-04-06T08:35:30.037Z,26.21
2017-04-06T08:36:40.206Z,27.74
2017-04-06T08:37:50.718Z,28.31
2017-04-06T08:39:02.192Z,27.62
2017-04-06T08:40:12.412Z,28.02
2017-04-06T08:41:22.932Z,26.76
2017-04-06T08:42:33.689Z,26.28
2017-04-06T08:43:44.238Z,26.47
2017-04-06T08:44:54.438Z,25.71
2017-04-06T08:46:05.067Z,25.81
2017-04-06T08:47:15.596Z,24.76
2017-04-06T08:48:26.333Z,24.76
2017-04-06T08:49:36.976Z,25.54
2017-04-06T08:50:47.513Z,24.97
2017-04-06T08:51:57.906Z,24.3
2017-04-06T08:53:08.436Z,23.44
2017-04-06T08:54:19.375Z,23.15
2017-04-06T08:55:30.552Z,23.05
2017-04-06T08:56:41.074Z,23.34
2017-04-06T08:57:52.575Z,24.21
2017-04-06T08:59:02.814Z,23.72
2017-04-06T09:00:13.286Z,23.44
2017-04-06T09:01:23.533Z,23.54
2017-04-06T09:02:33.652Z,22.96
2017-04-06T09:03:44.162Z,22.67
2017-04-06T09:04:54.797Z,22.86
2017-04-06T09:06:05.624Z,22.39
2017-04-06T09:07:15.864Z,21.62
2017-04-06T09:08:26.051Z,22.02
2017-04-06T09:09:36.575Z,22.09
2017-04-06T09:10:48.104Z,23.24
2017-04-06T09:11:58.938Z,24.19
2017-04-06T09:13:09.445Z,23.43
2017-04-06T09:14:20.010Z,23.72
2017-04-06T09:15:30.028Z,24.76
2017-04-06T09:16:40.530Z,24.66
2017-04-06T09:17:51.464Z,24.75
2017-04-06T09:19:01.679Z,24.56
2017-04-06T09:20:12.210Z,24.95
2017-04-06T09:21:22.389Z,25.32
2017-04-06T09:22:32.891Z,24.66
2017-04-06T09:23:44.777Z,23.99
2017-04-06T09:24:55.340Z,23.71
2017-04-06T09:26:05.865Z,23.52
2017-04-06T09:27:16.098Z,23.99
2017-04-06T09:28:26.616Z,24.84
2017-04-06T09:29:37.582Z,26.07
2017-04-06T09:30:47.863Z,26.25
2017-04-06T09:31:58.376Z,25.79
2017-04-06T09:33:08.948Z,24.82
2017-04-06T09:34:19.457Z,24.46
2017-04-06T09:35:29.843Z,23.32
2017-04-06T09:36:40.414Z,22.46
2017-04-06T09:37:50.590Z,21.89
2017-04-06T09:39:00.892Z,22.28
2017-04-06T09:40:11.126Z,22.47
2017-04-06T09:41:21.931Z,22.19
2017-04-06T09:42:32.550Z,20.36
2017-04-06T09:43:43.104Z,20.08
2017-04-06T09:44:53.614Z,19.89
2017-04-06T09:46:03.805Z,20.65
2017-04-06T09:47:14.645Z,21.31
2017-04-06T09:48:25.162Z,21.31
2017-04-06T09:49:35.799Z,22.56
2017-04-06T09:50:46.324Z,23.79
2017-04-06T09:51:56.693Z,23.39
2017-04-06T09:53:07.066Z,24.18
2017-04-06T09:54:17.645Z,23.78
2017-04-06T09:55:28.161Z,22.63
2017-04-06T09:57:10.557Z,22.36
2017-04-06T09:58:21.309Z,21.01
2017-04-06T09:59:31.810Z,20.83
2017-04-06T10:00:42.016Z,20.75
2017-04-06T10:01:52.256Z,20.54
2017-04-06T10:03:02.808Z,20.83
2017-04-06T10:04:13.605Z,22.53
2017-04-06T10:05:23.783Z,23.1
2017-04-06T10:06:33.673Z,23.21
2017-04-06T10:07:43.561Z,22.34
2017-04-06T10:08:54.062Z,22.36
2017-04-06T10:10:05.495Z,21.78
2017-04-06T10:11:16.168Z,22.34
2017-04-06T10:12:26.671Z,22.81
2017-04-06T10:13:37.225Z,22.42
2017-04-06T10:14:47.772Z,22.71
2017-04-06T10:15:58.587Z,22.9
2017-04-06T10:17:09.116Z,23.49
2017-04-06T10:18:19.669Z,23.78
2017-04-06T10:19:30.425Z,23.38
2017-04-06T10:20:40.656Z,22.32
2017-04-06T10:21:51.095Z,22.52
2017-04-06T10:23:01.598Z,22.52
2017-04-06T10:24:12.188Z,23.47
2017-04-06T10:25:22.761Z,24.33
2017-04-06T10:26:32.998Z,24.43
2017-04-06T10:27:43.792Z,24.52
2017-04-06T10:28:54.168Z,24.52
2017-04-06T10:30:05.650Z,24.24
2017-04-06T10:31:16.878Z,23.67
2017-04-06T10:32:28.346Z,22.33
2017-04-06T10:33:38.147Z,21.85
2017-04-06T10:34:49.755Z,21.58
2017-04-06T10:35:59.960Z,20.32
2017-04-06T10:37:10.470Z,19.95
2017-04-06T10:38:21.015Z,20.53
2017-04-06T10:39:31.821Z,21.58
2017-04-06T10:40:42.325Z,22.53
2017-04-06T10:41:52.198Z,23.1
2017-04-06T10:43:02.070Z,22.61
2017-04-06T10:44:12.764Z,22.9
2017-04-06T10:45:23.644Z,22.71
2017-04-06T10:46:33.862Z,22.05
2017-04-06T10:47:44.084Z,22.14
2017-04-06T10:48:54.328Z,22.52
2017-04-06T10:50:04.833Z,22.32
2017-04-06T10:51:15.517Z,22.81
2017-04-06T10:52:25.429Z,23.09
2017-04-06T10:53:35.924Z,23.28
2017-04-06T10:54:46.835Z,24.62
2017-04-06T10:55:58.012Z,24.22
2017-04-06T10:57:08.096Z,24.22
2017-04-06T10:58:18.653Z,23.65
2017-04-06T10:59:30.226Z,23.46
2017-04-06T11:00:40.758Z,23.07
2017-04-06T11:01:50.960Z,22.99
2017-04-06T11:03:02.490Z,22.03
2017-04-06T11:04:13.039Z,21.37
2017-04-06T11:05:23.408Z,20.78
2017-04-06T11:06:33.557Z,20.21
2017-04-06T11:07:43.799Z,20.02
2017-04-06T11:08:54.585Z,19.65
2017-04-06T11:10:05.235Z,19.65
2017-04-06T11:11:15.501Z,19.08
2017-04-06T11:12:26.171Z,19.46
2017-04-06T11:13:36.682Z,20.7
2017-04-06T11:14:47.295Z,20.4
2017-04-06T11:15:57.518Z,20.79
2017-04-06T11:17:08.101Z,20.98
2017-04-06T11:18:19.327Z,21.08
2017-04-06T11:19:30.491Z,21.18
2017-04-06T11:20:40.658Z,20.89
2017-04-06T11:21:51.430Z,21.58
2017-04-06T11:23:02.137Z,19.84
2017-04-06T11:24:13.654Z,19.06
2017-04-06T11:25:24.868Z,18.86
2017-04-06T11:26:35.347Z,19.34
2017-04-06T11:27:45.577Z,19.82
2017-04-06T11:28:56.149Z,20.4
2017-04-06T11:30:38.226Z,19.43
2017-04-06T11:31:48.669Z,19.35
2017-04-06T11:32:59.325Z,19.83
2017-04-06T11:34:10.910Z,19.84
2017-04-06T11:35:21.316Z,19.65
2017-04-06T11:36:31.861Z,20.21
2017-04-06T11:37:42.730Z,20.78
2017-04-06T11:38:53.232Z,20.97
2017-04-06T11:40:03.781Z,20.78
2017-04-06T11:41:14.287Z,20.59
2017-04-06T11:42:24.800Z,20.68
2017-04-06T11:43:35.618Z,20.3
2017-04-06T11:44:46.115Z,19.93
2017-04-06T11:45:56.832Z,19.15
2017-04-06T11:47:08.485Z,18.97
2017-04-06T11:48:19.058Z,18.1
2017-04-06T11:49:29.898Z,18.01
2017-04-06T11:50:41.377Z,18.2
2017-04-06T11:51:52.070Z,18.7
2017-04-06T11:53:02.326Z,18.79
2017-04-06T11:54:12.967Z,19.08
2017-04-06T11:55:23.828Z,18.79
2017-04-06T11:56:34.026Z,18.98
2017-04-06T11:57:44.708Z,19.46
2017-04-06T11:58:55.340Z,18.7
2017-04-06T12:00:05.664Z,18.98
2017-04-06T12:01:16.052Z,18.21
2017-04-06T12:02:27.232Z,18.21
2017-04-06T12:03:37.446Z,18.12
2017-04-06T12:04:47.707Z,17.07
2017-04-06T12:05:58.947Z,16.3
2017-04-06T12:07:10.245Z,16.88
2017-04-06T12:08:20.153Z,16.78
2017-04-06T12:09:31.402Z,15.72
2017-04-06T12:10:41.952Z,15.63
2017-04-06T12:11:52.220Z,15.44
2017-04-06T12:13:03.082Z,16.02
2017-04-06T12:14:13.829Z,15.92
2017-04-06T12:15:24.081Z,16.11
2017-04-06T12:16:34.593Z,16.59
2017-04-06T12:17:44.808Z,17.55
2017-04-06T12:18:55.625Z,18.02
2017-04-06T12:20:05.899Z,19.07
2017-04-06T12:21:16.489Z,19.54
2017-04-06T12:22:26.706Z,19.82
2017-04-06T12:23:36.968Z,20.2
2017-04-06T12:24:47.441Z,20.4
2017-04-06T12:25:58.278Z,20.77
2017-04-06T12:27:08.837Z,20.95
2017-04-06T12:28:19.409Z,20.47
2017-04-06T12:29:29.945Z,20.47
2017-04-06T12:30:40.748Z,19.9
2017-04-06T12:31:51.346Z,19.43
2017-04-06T12:33:01.555Z,19.13
2017-04-06T12:34:12.128Z,18.95
2017-04-06T12:35:22.718Z,18.86
2017-04-06T12:36:33.575Z,18.38
2017-04-06T12:37:43.928Z,18.38
2017-04-06T12:38:54.123Z,18.78
2017-04-06T12:40:04.321Z,19.74
2017-04-06T12:41:14.194Z,19.45
2017-04-06T12:42:24.763Z,19.54
2017-04-06T12:43:35.117Z,18.96
2017-04-06T12:44:46.645Z,19.15
2017-04-06T12:45:57.145Z,19.45
2017-04-06T12:47:07.503Z,19.43
2017-04-06T12:48:17.660Z,19.45
2017-04-06T12:49:29.324Z,19.25
2017-04-06T12:50:39.857Z,19.64
2017-04-06T12:51:50.091Z,19.63
2017-04-06T12:53:00.719Z,19.72
2017-04-06T12:54:11.239Z,20.48
2017-04-06T12:55:21.491Z,20.97
2017-04-06T12:56:32.001Z,21.83
2017-04-06T12:57:42.249Z,23.36
2017-04-06T12:58:52.892Z,24.21
2017-04-06T13:00:03.711Z,24.5
2017-04-06T13:01:14.230Z,24.39
2017-04-06T13:02:25.069Z,24.01
2017-04-06T13:03:35.396Z,24.57
2017-04-06T13:04:45.626Z,24.58
2017-04-06T13:05:56.461Z,23.9
2017-04-06T13:07:06.763Z,23.72
2017-04-06T13:08:16.769Z,23.52
2017-04-06T13:09:26.978Z,23.52
2017-04-06T13:10:37.558Z,22.56
2017-04-06T13:11:48.033Z,22.47
2017-04-06T13:12:58.648Z,22.29
2017-04-06T13:14:09.177Z,22.29
2017-04-06T13:15:19.706Z,21.99
2017-04-06T13:16:29.926Z,21.7
2017-04-06T13:17:40.725Z,22.66
2017-04-06T13:18:51.325Z,23.03
2017-04-06T13:20:02.529Z,23.42
2017-04-06T13:21:13.075Z,23.42
2017-04-06T13:22:23.345Z,23.61
2017-04-06T13:23:35.070Z,24.38
2017-04-06T13:24:45.610Z,24.56
2017-04-06T13:25:56.119Z,24.37
2017-04-06T13:27:06.480Z,24.65
2017-04-06T13:28:16.850Z,24.85
2017-04-06T13:29:27.603Z,25.23
2017-04-06T13:30:37.794Z,25.13
2017-04-06T13:31:48.433Z,25.12
2017-04-06T13:32:58.656Z,25.02
2017-04-06T13:34:09.232Z,25.21
2017-04-06T13:35:20.035Z,25.79
2017-04-06T13:36:30.565Z,26.18
2017-04-06T13:37:41.077Z,25.6
2017-04-06T13:38:51.699Z,25.6
2017-04-06T13:40:02.319Z,25.61
2017-04-06T13:41:13.135Z,24.64
2017-04-06T13:42:23.459Z,24.26
2017-04-06T13:43:34.028Z,24.55
2017-04-06T13:44:45.516Z,25.02
2017-04-06T13:45:56.069Z,25.4
2017-04-06T13:47:06.928Z,25.78
2017-04-06T13:48:18.425Z,26.64
2017-04-06T13:49:28.948Z,27.03
2017-04-06T13:50:39.215Z,27.7
2017-04-06T13:51:49.521Z,27.7
2017-04-06T13:53:00.310Z,27.79
2017-04-06T13:54:10.811Z,27.12
2017-04-06T13:55:21.007Z,25.87
2017-04-06T13:56:31.592Z,25.87
2017-04-06T13:57:42.402Z,25.87
2017-04-06T13:58:53.230Z,26.35
2017-04-06T14:00:04.489Z,27.31
2017-04-06T14:01:15.030Z,27.89
2017-04-06T14:02:25.554Z,28.35
2017-04-06T14:03:36.121Z,29.12
2017-04-06T14:04:46.884Z,29.02
2017-04-06T14:05:57.131Z,29.31
2017-04-06T14:07:07.843Z,28.75
2017-04-06T14:08:18.667Z,28.08
2017-04-06T14:09:29.209Z,27.12
2017-04-06T14:10:40.018Z,26.26
2017-04-06T14:11:50.337Z,26.54
2017-04-06T14:13:00.849Z,27.31
2017-04-06T14:14:11.450Z,27.31
2017-04-06T14:15:22.039Z,27.39
2017-04-06T14:16:32.507Z,27.68
2017-04-06T14:17:42.734Z,27.22
2017-04-06T14:18:53.318Z,27.5
2017-04-06T14:20:03.525Z,27.78
2017-04-06T14:21:13.708Z,27.78
2017-04-06T14:22:24.813Z,27.87
2017-04-06T14:23:35.018Z,28.06
2017-04-06T14:24:45.676Z,28.55
2017-04-06T14:25:56.215Z,28.83
2017-04-06T14:27:06.176Z,28.92
2017-04-06T14:28:17.071Z,29.31
2017-04-06T14:29:27.575Z,29.33
2017-04-06T14:30:38.263Z,28.83
2017-04-06T14:31:48.157Z,27.98
2017-04-06T14:32:58.725Z,28.46
2017-04-06T14:34:09.137Z,28.27
2017-04-06T14:35:19.662Z,28.64
2017-04-06T14:36:29.884Z,29.02
2017-04-06T14:37:40.115Z,28.45
2017-04-06T14:38:50.719Z,28.26
2017-04-06T14:40:01.271Z,29.02
2017-04-06T14:41:11.453Z,28.74
2017-04-06T14:42:21.987Z,29.12
2017-04-06T14:43:32.301Z,28.83
2017-04-06T14:44:42.489Z,29.5
2017-04-06T14:45:53.118Z,29.6
2017-04-06T14:47:03.395Z,29.98
2017-04-06T14:48:13.961Z,30.36
2017-04-06T14:49:24.470Z,30.75
2017-04-06T14:50:34.979Z,30.75
2017-04-06T14:51:45.411Z,30.55
2017-04-06T14:52:55.940Z,29.88
2017-04-06T14:54:06.492Z,29.69
2017-04-06T14:55:17.014Z,29.69
2017-04-06T14:56:27.319Z,29.98
2017-04-06T14:57:37.829Z,30.18
2017-04-06T14:58:48.016Z,30.36
2017-04-06T14:59:58.243Z,30.46
2017-04-06T15:01:08.583Z,30.27
2017-04-06T15:02:18.840Z,30.64
2017-04-06T15:03:29.043Z,30.93
2017-04-06T15:04:39.227Z,31.5
2017-04-06T15:05:50.724Z,31.5
2017-04-06T15:07:01.256Z,31.98